createdAt,value
2023-05-23T00:00:50.815Z,8
2023-05-23T00:01:57.780Z,9
2023-05-23T00:03:04.834Z,8
2023-05-23T00:04:11.592Z,8
2023-05-23T00:05:18.391Z,9
2023-05-23T00:06:25.236Z,8
2023-05-23T00:07:32.107Z,8
2023-05-23T00:08:38.911Z,8
2023-05-23T00:09:45.799Z,9
2023-05-23T00:10:52.715Z,9
2023-05-23T00:11:59.397Z,8
2023-05-23T00:13:06.321Z,8
2023-05-23T00:14:13.046Z,8
2023-05-23T00:15:19.842Z,8
2023-05-23T00:19:09.287Z,8
2023-05-23T00:20:16.053Z,8
2023-05-23T00:21:22.802Z,8
2023-05-23T00:22:34.610Z,9
2023-05-23T00:23:41.465Z,8
2023-05-23T00:24:48.232Z,8
2023-05-23T00:25:55.244Z,8
2023-05-23T00:27:02.196Z,8
2023-05-23T00:28:08.844Z,8
2023-05-23T00:29:15.634Z,7
2023-05-23T00:30:22.428Z,8
2023-05-23T00:31:29.405Z,8
2023-05-23T00:32:36.264Z,9
2023-05-23T00:33:43.202Z,9
2023-05-23T00:34:50.077Z,8
2023-05-23T00:35:56.881Z,8
2023-05-23T00:37:03.867Z,8
2023-05-23T00:38:10.656Z,8
2023-05-23T00:39:17.529Z,9
2023-05-23T00:40:39.460Z,8
2023-05-23T00:41:46.275Z,9
2023-05-23T00:42:53.327Z,9
2023-05-23T00:44:00.947Z,9
2023-05-23T00:45:07.811Z,8
2023-05-23T00:46:14.754Z,9
2023-05-23T00:47:21.502Z,8
2023-05-23T00:48:28.429Z,9
2023-05-23T00:49:35.227Z,8
2023-05-23T00:50:42.048Z,8
2023-05-23T00:51:48.890Z,9
2023-05-23T00:52:55.734Z,8
2023-05-23T00:54:02.532Z,8
2023-05-23T00:55:32.228Z,8
2023-05-23T00:56:39.124Z,9
2023-05-23T00:57:46.049Z,8
2023-05-23T00:58:52.974Z,9
2023-05-23T00:59:59.637Z,9
2023-05-23T01:01:06.614Z,9
2023-05-23T01:02:13.476Z,8
2023-05-23T01:03:20.343Z,9
2023-05-23T01:04:27.364Z,9
2023-05-23T01:05:33.916Z,9
2023-05-23T01:06:40.718Z,9
2023-05-23T01:07:47.566Z,8
2023-05-23T01:08:54.410Z,8
2023-05-23T01:10:01.190Z,8
2023-05-23T01:11:47.857Z,8
2023-05-23T01:13:02.641Z,8
2023-05-23T01:14:17.937Z,8
2023-05-23T01:15:27.326Z,8
2023-05-23T01:16:44.494Z,8
2023-05-23T01:17:56.375Z,9
2023-05-23T01:20:01.663Z,9
2023-05-23T01:21:13.569Z,8
2023-05-23T01:22:20.341Z,8
2023-05-23T01:23:37.496Z,8
2023-05-23T01:24:49.418Z,8
2023-05-23T01:26:01.381Z,9
2023-05-23T01:27:18.502Z,9
2023-05-23T01:28:30.762Z,9
2023-05-23T01:29:40.788Z,9
2023-05-23T01:30:47.580Z,9
2023-05-23T01:31:54.497Z,9
2023-05-23T01:33:01.347Z,8
2023-05-23T01:34:08.106Z,9
2023-05-23T01:35:17.956Z,8
2023-05-23T01:36:24.928Z,8
2023-05-23T01:37:31.782Z,8
2023-05-23T01:38:38.566Z,9
2023-05-23T01:39:45.432Z,8
2023-05-23T01:40:52.438Z,8
2023-05-23T01:41:59.207Z,8
2023-05-23T01:43:05.963Z,9
2023-05-23T01:44:12.756Z,9
2023-05-23T01:45:19.707Z,8
2023-05-23T01:46:26.647Z,8
2023-05-23T01:47:33.428Z,9
2023-05-23T01:48:40.259Z,8
2023-05-23T01:49:54.035Z,9
2023-05-23T01:51:01.086Z,8
2023-05-23T01:52:07.887Z,8
2023-05-23T01:53:14.747Z,8
2023-05-23T01:54:21.532Z,8
2023-05-23T01:55:28.302Z,8
2023-05-23T01:56:35.089Z,9
2023-05-23T01:57:41.846Z,8
2023-05-23T01:58:48.718Z,9
2023-05-23T01:59:55.569Z,8
2023-05-23T02:01:02.493Z,9
2023-05-23T02:02:09.153Z,9
2023-05-23T02:03:16.022Z,9
2023-05-23T02:04:22.792Z,9
2023-05-23T02:05:29.635Z,8
2023-05-23T02:06:36.501Z,8
2023-05-23T02:07:43.308Z,9
2023-05-23T02:08:50.145Z,8
2023-05-23T02:09:57.063Z,8
2023-05-23T02:11:03.895Z,9
2023-05-23T02:12:10.725Z,8
2023-05-23T02:13:17.478Z,9
2023-05-23T02:14:24.429Z,8
2023-05-23T02:15:31.240Z,9
2023-05-23T02:16:38.170Z,9
2023-05-23T02:17:44.830Z,9
2023-05-23T02:18:51.673Z,9
2023-05-23T02:19:58.451Z,8
2023-05-23T02:21:05.370Z,9
2023-05-23T02:22:12.171Z,9
2023-05-23T02:23:19.008Z,9
2023-05-23T02:24:25.811Z,9
2023-05-23T02:25:32.649Z,9
2023-05-23T02:26:39.429Z,9
2023-05-23T02:27:46.217Z,9
2023-05-23T02:28:53.013Z,9
2023-05-23T02:29:59.834Z,9
2023-05-23T02:31:06.703Z,8
2023-05-23T02:32:13.603Z,10
2023-05-23T02:33:21.496Z,9
2023-05-23T02:34:28.345Z,8
2023-05-23T02:35:35.214Z,8
2023-05-23T02:36:42.247Z,9
2023-05-23T02:37:49.077Z,9
2023-05-23T02:38:55.871Z,9
2023-05-23T02:40:02.653Z,8
2023-05-23T02:41:09.873Z,9
2023-05-23T02:42:16.860Z,8
2023-05-23T02:43:23.688Z,9
2023-05-23T02:44:30.544Z,9
2023-05-23T02:45:37.321Z,8
2023-05-23T02:46:44.164Z,8
2023-05-23T02:47:51.183Z,8
2023-05-23T02:48:57.794Z,8
2023-05-23T02:50:04.559Z,8
2023-05-23T02:51:11.434Z,8
2023-05-23T02:52:18.426Z,8
2023-05-23T02:53:25.181Z,8
2023-05-23T02:54:32.126Z,8
2023-05-23T02:58:06.787Z,8
2023-05-23T02:59:13.604Z,8
2023-05-23T03:00:20.410Z,8
2023-05-23T03:01:27.261Z,8
2023-05-23T03:02:34.138Z,8
2023-05-23T03:03:41.133Z,8
2023-05-23T03:04:47.810Z,8
2023-05-23T03:05:54.723Z,8
2023-05-23T03:07:01.670Z,8
2023-05-23T03:08:08.828Z,9
2023-05-23T03:11:52.855Z,9
2023-05-23T03:12:59.950Z,9
2023-05-23T03:14:07.020Z,8
2023-05-23T03:15:14.270Z,8
2023-05-23T03:16:21.380Z,8
2023-05-23T03:17:28.405Z,9
2023-05-23T03:18:35.468Z,8
2023-05-23T03:19:42.667Z,7
2023-05-23T03:20:49.405Z,8
2023-05-23T03:24:47.037Z,8
2023-05-23T03:25:54.245Z,7
2023-05-23T03:27:01.277Z,8
2023-05-23T03:28:08.625Z,7
2023-05-23T03:29:15.823Z,8
2023-05-23T03:30:22.807Z,8
2023-05-23T03:31:29.780Z,8
2023-05-23T03:32:36.818Z,8
2023-05-23T03:33:43.820Z,8
2023-05-23T03:34:50.915Z,7
2023-05-23T03:35:57.891Z,8
2023-05-23T03:37:04.817Z,8
2023-05-23T03:38:11.819Z,8
2023-05-23T03:39:18.899Z,8
2023-05-23T03:40:26.104Z,8
2023-05-23T03:41:33.185Z,9
2023-05-23T03:42:40.171Z,8
2023-05-23T03:43:47.140Z,8
2023-05-23T03:44:54.175Z,8
2023-05-23T03:46:01.224Z,8
2023-05-23T03:47:08.228Z,8
2023-05-23T03:48:15.236Z,8
2023-05-23T03:49:22.286Z,8
2023-05-23T03:50:29.422Z,8
2023-05-23T03:51:36.377Z,8
2023-05-23T03:52:43.517Z,8
2023-05-23T03:53:50.721Z,9
2023-05-23T03:54:57.845Z,8
2023-05-23T03:56:05.942Z,9
2023-05-23T03:57:14.169Z,8
2023-05-23T03:58:21.669Z,8
2023-05-23T03:59:28.789Z,9
2023-05-23T04:00:36.007Z,8
2023-05-23T04:01:43.110Z,8
2023-05-23T04:02:50.269Z,9
2023-05-23T04:03:58.115Z,8
2023-05-23T04:05:05.168Z,8
2023-05-23T04:06:14.250Z,9
2023-05-23T04:07:19.508Z,8
2023-05-23T04:08:26.730Z,8
2023-05-23T04:10:36.680Z,8
2023-05-23T04:11:43.756Z,8
2023-05-23T04:12:50.770Z,8
2023-05-23T04:13:57.849Z,8
2023-05-23T04:15:04.838Z,8
2023-05-23T04:16:24.935Z,8
2023-05-23T04:17:32.997Z,9
2023-05-23T04:18:40.118Z,9
2023-05-23T04:19:47.148Z,9
2023-05-23T04:20:54.190Z,8
2023-05-23T04:22:03.339Z,9
2023-05-23T04:23:10.057Z,9
2023-05-23T04:24:16.927Z,8
2023-05-23T04:25:23.815Z,8
2023-05-23T04:26:30.631Z,9
2023-05-23T04:27:39.357Z,9
2023-05-23T04:28:44.388Z,9
2023-05-23T04:29:51.345Z,9
2023-05-23T04:30:58.295Z,9
2023-05-23T04:32:05.002Z,10
2023-05-23T04:34:08.557Z,10
2023-05-23T04:35:15.336Z,10
2023-05-23T04:36:22.143Z,10
2023-05-23T04:37:30.185Z,9
2023-05-23T04:38:59.750Z,9
2023-05-23T04:40:06.741Z,9
2023-05-23T04:41:13.929Z,9
2023-05-23T04:42:20.704Z,10
2023-05-23T04:43:27.535Z,10
2023-05-23T04:44:34.260Z,11
2023-05-23T04:45:41.584Z,11
2023-05-23T04:46:48.072Z,11
2023-05-23T04:47:55.072Z,11
2023-05-23T04:49:01.862Z,10
2023-05-23T04:50:08.666Z,10
2023-05-23T04:51:15.475Z,11
2023-05-23T04:52:22.305Z,10
2023-05-23T04:53:29.222Z,11
2023-05-23T04:54:36.005Z,10
2023-05-23T04:55:42.915Z,11
2023-05-23T04:56:49.684Z,11
2023-05-23T04:57:56.480Z,10
2023-05-23T04:59:03.362Z,11
2023-05-23T05:00:10.186Z,11
2023-05-23T05:01:17.269Z,11
2023-05-23T05:02:24.116Z,11
2023-05-23T05:03:30.938Z,11
2023-05-23T05:04:37.734Z,11
2023-05-23T05:05:44.574Z,11
2023-05-23T05:06:51.371Z,11
2023-05-23T05:08:05.922Z,11
2023-05-23T05:09:12.981Z,11
2023-05-23T05:10:19.668Z,11
2023-05-23T05:11:26.540Z,11
2023-05-23T05:12:33.382Z,11
2023-05-23T05:13:40.237Z,10
2023-05-23T05:14:47.206Z,11
2023-05-23T05:15:53.991Z,11
2023-05-23T05:17:00.826Z,10
2023-05-23T05:18:07.621Z,11
2023-05-23T05:19:14.549Z,11
2023-05-23T05:20:21.338Z,11
2023-05-23T05:22:38.070Z,11
2023-05-23T05:23:44.879Z,10
2023-05-23T05:24:51.763Z,11
2023-05-23T05:25:58.485Z,11
2023-05-23T05:27:47.243Z,11
2023-05-23T05:28:54.258Z,11
2023-05-23T05:30:01.150Z,10
2023-05-23T05:31:08.210Z,11
2023-05-23T05:32:15.070Z,11
2023-05-23T05:33:21.827Z,10
2023-05-23T05:34:28.726Z,11
2023-05-23T05:35:35.523Z,11
2023-05-23T05:36:42.286Z,11
2023-05-23T05:37:49.278Z,11
2023-05-23T05:38:56.109Z,11
2023-05-23T05:40:02.950Z,12
2023-05-23T05:41:09.786Z,11
2023-05-23T05:42:16.718Z,12
2023-05-23T05:43:23.558Z,11
2023-05-23T05:44:32.391Z,12
2023-05-23T05:45:40.479Z,12
2023-05-23T05:46:47.356Z,14
2023-05-23T05:47:54.263Z,12
2023-05-23T05:49:01.071Z,13
2023-05-23T05:50:07.935Z,13
2023-05-23T05:51:14.745Z,12
2023-05-23T05:52:21.598Z,11
2023-05-23T05:53:28.597Z,12
2023-05-23T05:55:07.220Z,12
2023-05-23T05:56:16.575Z,12
2023-05-23T05:57:23.523Z,12
2023-05-23T05:58:30.696Z,12
2023-05-23T06:00:08.964Z,13
2023-05-23T06:01:41.045Z,13
2023-05-23T06:02:47.934Z,13
2023-05-23T06:04:04.946Z,13
2023-05-23T06:05:11.462Z,13
2023-05-23T06:07:30.198Z,13
2023-05-23T06:09:28.850Z,13
2023-05-23T06:10:35.888Z,13
2023-05-23T06:12:13.746Z,13
2023-05-23T06:13:35.545Z,13
2023-05-23T06:14:57.666Z,14
2023-05-23T06:16:02.765Z,14
2023-05-23T06:17:15.727Z,14
2023-05-23T06:18:21.495Z,14
2023-05-23T06:19:28.302Z,15
2023-05-23T06:20:35.081Z,14
2023-05-23T06:21:41.885Z,14
2023-05-23T06:25:51.337Z,15
2023-05-23T06:26:58.005Z,15
2023-05-23T06:28:04.899Z,15
2023-05-23T06:29:11.631Z,14
2023-05-23T06:30:18.416Z,15
2023-05-23T06:31:25.437Z,14
2023-05-23T06:32:32.319Z,15
2023-05-23T06:33:39.056Z,15
2023-05-23T06:34:45.818Z,15
2023-05-23T06:35:52.529Z,15
2023-05-23T06:36:59.366Z,15
2023-05-23T06:38:06.188Z,14
2023-05-23T06:39:13.069Z,15
2023-05-23T06:40:19.867Z,14
2023-05-23T06:41:26.849Z,14
2023-05-23T06:42:33.558Z,14
2023-05-23T06:43:40.334Z,14
2023-05-23T06:44:47.075Z,14
2023-05-23T06:45:53.881Z,13
2023-05-23T06:47:00.793Z,13
2023-05-23T06:48:07.662Z,13
2023-05-23T06:49:15.304Z,13
2023-05-23T06:50:21.420Z,13
2023-05-23T06:51:28.312Z,12
2023-05-23T06:52:35.261Z,13
2023-05-23T06:54:00.142Z,13
2023-05-23T06:55:07.266Z,12
2023-05-23T06:56:14.180Z,12
2023-05-23T06:57:21.205Z,12
2023-05-23T06:58:27.844Z,12
2023-05-23T06:59:34.688Z,11
2023-05-23T07:00:41.910Z,12
2023-05-23T07:01:48.447Z,12
2023-05-23T07:02:55.261Z,13
2023-05-23T07:04:05.039Z,12
2023-05-23T07:05:11.896Z,12
2023-05-23T07:06:18.687Z,12
2023-05-23T07:07:25.678Z,12
2023-05-23T07:08:32.505Z,12
2023-05-23T07:09:39.301Z,12
2023-05-23T07:10:46.127Z,12
2023-05-23T07:11:53.055Z,12
2023-05-23T07:13:00.110Z,13
2023-05-23T07:14:06.772Z,13
2023-05-23T07:15:13.649Z,13
2023-05-23T07:16:20.509Z,12
2023-05-23T07:17:27.488Z,12
2023-05-23T07:18:36.139Z,12
2023-05-23T07:19:41.316Z,11
2023-05-23T07:20:48.188Z,12
2023-05-23T07:21:55.048Z,11
2023-05-23T07:23:01.983Z,12
2023-05-23T07:24:08.993Z,12
2023-05-23T07:25:15.925Z,12
2023-05-23T07:26:22.686Z,12
2023-05-23T07:27:29.551Z,11
2023-05-23T07:28:36.580Z,11
2023-05-23T07:29:43.279Z,11
2023-05-23T07:31:28.065Z,11
2023-05-23T07:32:34.903Z,10
2023-05-23T07:33:41.699Z,10
2023-05-23T07:34:48.598Z,10
2023-05-23T07:35:55.400Z,11
2023-05-23T07:37:02.251Z,10
2023-05-23T07:38:09.167Z,10
2023-05-23T07:39:15.987Z,10
2023-05-23T07:40:22.846Z,10
2023-05-23T07:41:29.641Z,9
2023-05-23T07:42:36.450Z,10
2023-05-23T07:43:43.302Z,11
2023-05-23T07:44:50.044Z,10
2023-05-23T07:45:56.808Z,10
2023-05-23T07:47:03.745Z,10
2023-05-23T07:48:10.619Z,10
2023-05-23T07:49:17.492Z,10
2023-05-23T07:50:24.330Z,10
2023-05-23T07:51:31.078Z,9
2023-05-23T07:52:37.868Z,10
2023-05-23T07:53:44.904Z,10
2023-05-23T07:54:51.755Z,10
2023-05-23T07:55:58.537Z,10
2023-05-23T07:57:05.422Z,9
2023-05-23T07:58:12.257Z,10
2023-05-23T07:59:19.170Z,10
2023-05-23T08:00:25.936Z,9
2023-05-23T08:01:32.794Z,9
2023-05-23T08:02:39.606Z,9
2023-05-23T08:03:46.688Z,9
2023-05-23T08:04:53.441Z,10
2023-05-23T08:06:00.238Z,9
2023-05-23T08:07:07.148Z,9
2023-05-23T08:08:14.068Z,9
2023-05-23T08:09:21.071Z,9
2023-05-23T08:10:43.094Z,9
2023-05-23T08:11:49.798Z,9
2023-05-23T08:12:56.682Z,9
2023-05-23T08:14:03.587Z,9
2023-05-23T08:15:11.661Z,10
2023-05-23T08:16:23.652Z,9
2023-05-23T08:17:30.683Z,10
2023-05-23T08:18:37.686Z,9
2023-05-23T08:19:44.485Z,10
2023-05-23T08:20:51.262Z,9
2023-05-23T08:21:58.066Z,8
2023-05-23T08:23:04.895Z,9
2023-05-23T08:24:13.367Z,9
2023-05-23T08:25:30.678Z,9
2023-05-23T08:26:37.453Z,9
2023-05-23T08:27:44.321Z,9
2023-05-23T08:28:51.236Z,8
2023-05-23T08:29:58.096Z,8
2023-05-23T08:31:04.973Z,8
2023-05-23T08:32:11.861Z,8
2023-05-23T08:33:18.669Z,9
2023-05-23T08:34:25.451Z,8
2023-05-23T08:35:32.213Z,8
2023-05-23T08:36:38.992Z,8
2023-05-23T08:37:45.805Z,9
2023-05-23T08:38:52.699Z,9
2023-05-23T08:39:59.545Z,8
2023-05-23T08:41:06.542Z,9
2023-05-23T08:42:13.425Z,8
2023-05-23T08:43:20.329Z,8
2023-05-23T08:44:27.112Z,7
2023-05-23T08:45:34.025Z,7
2023-05-23T08:46:40.887Z,7
2023-05-23T08:47:47.715Z,7
2023-05-23T08:48:54.492Z,8
2023-05-23T08:50:01.302Z,8
2023-05-23T08:51:08.191Z,7
2023-05-23T08:52:15.036Z,7
2023-05-23T08:53:21.967Z,8
2023-05-23T08:54:28.782Z,7
2023-05-23T08:55:35.531Z,7
2023-05-23T08:56:42.297Z,6
2023-05-23T08:57:49.516Z,6
2023-05-23T08:58:56.542Z,6
2023-05-23T09:00:18.524Z,5
2023-05-23T09:01:25.387Z,6
2023-05-23T09:02:32.312Z,6
2023-05-23T09:03:39.074Z,6
2023-05-23T09:04:45.922Z,5
2023-05-23T09:05:52.898Z,5
2023-05-23T09:06:59.847Z,6
2023-05-23T09:08:08.795Z,6
2023-05-23T09:09:15.578Z,6
2023-05-23T09:10:22.482Z,6
2023-05-23T09:11:29.352Z,6
2023-05-23T09:12:39.103Z,6
2023-05-23T09:13:45.862Z,6
2023-05-23T09:14:52.781Z,6
2023-05-23T09:15:59.664Z,5
2023-05-23T09:17:19.344Z,5
2023-05-23T09:18:26.322Z,5
2023-05-23T09:19:38.491Z,5
2023-05-23T09:20:45.248Z,6
2023-05-23T09:21:52.126Z,5
2023-05-23T09:23:00.081Z,5
2023-05-23T09:24:05.895Z,5
2023-05-23T09:25:12.807Z,5
2023-05-23T09:26:19.624Z,5
2023-05-23T09:27:26.425Z,4
2023-05-23T09:28:33.249Z,5
2023-05-23T09:29:40.076Z,5
2023-05-23T09:30:46.919Z,4
2023-05-23T09:31:53.736Z,5
2023-05-23T09:33:05.346Z,5
2023-05-23T09:34:10.174Z,5
2023-05-23T09:35:17.249Z,4
2023-05-23T09:36:24.254Z,4
2023-05-23T09:37:31.073Z,4
2023-05-23T09:38:37.893Z,4
2023-05-23T09:39:44.732Z,4
2023-05-23T09:40:51.570Z,4
2023-05-23T09:41:58.405Z,4
2023-05-23T09:43:05.250Z,4
2023-05-23T09:44:12.102Z,4
2023-05-23T09:46:23.924Z,4
2023-05-23T09:47:30.741Z,4
2023-05-23T09:48:37.610Z,4
2023-05-23T09:49:49.461Z,4
2023-05-23T09:50:56.316Z,4
2023-05-23T09:52:03.141Z,4
2023-05-23T09:53:09.953Z,4
2023-05-23T09:54:16.964Z,4
2023-05-23T09:55:23.811Z,4
2023-05-23T09:56:30.631Z,4
2023-05-23T09:57:37.488Z,4
2023-05-23T09:58:44.453Z,4
2023-05-23T09:59:51.293Z,4
2023-05-23T10:00:58.156Z,4
2023-05-23T10:02:08.004Z,4
2023-05-23T10:03:15.032Z,4
2023-05-23T10:04:21.855Z,5
2023-05-23T10:05:28.640Z,4
2023-05-23T10:06:38.020Z,4
2023-05-23T10:07:44.820Z,4
2023-05-23T10:08:51.671Z,5
2023-05-23T10:10:03.635Z,4
2023-05-23T10:11:10.581Z,4
2023-05-23T10:12:17.357Z,4
2023-05-23T10:13:34.640Z,5
2023-05-23T10:14:41.479Z,5
2023-05-23T10:15:48.302Z,5
2023-05-23T10:16:55.259Z,4
2023-05-23T10:18:02.121Z,4
2023-05-23T10:19:09.267Z,4
2023-05-23T10:20:26.304Z,4
2023-05-23T10:21:33.150Z,4
2023-05-23T10:22:39.951Z,4
2023-05-23T10:23:46.771Z,5
2023-05-23T10:24:53.529Z,4
2023-05-23T10:26:00.370Z,5
2023-05-23T10:27:07.179Z,5
2023-05-23T10:28:13.979Z,5
2023-05-23T10:29:20.787Z,5
2023-05-23T10:30:27.685Z,5
2023-05-23T10:32:04.507Z,5
2023-05-23T10:33:11.326Z,5
2023-05-23T10:34:18.293Z,5
2023-05-23T10:35:25.047Z,5
2023-05-23T10:36:37.165Z,4
2023-05-23T10:37:43.900Z,5
2023-05-23T10:38:55.941Z,5
2023-05-23T10:40:05.618Z,4
2023-05-23T10:41:20.495Z,5
2023-05-23T10:42:47.464Z,4
2023-05-23T10:44:02.547Z,5
2023-05-23T10:45:14.815Z,4
2023-05-23T10:46:21.900Z,5
2023-05-23T10:47:28.664Z,5
2023-05-23T10:48:35.501Z,5
2023-05-23T10:49:45.000Z,5
2023-05-23T10:51:24.635Z,5
2023-05-23T10:52:31.434Z,5
2023-05-23T10:53:38.282Z,5
2023-05-23T10:54:45.171Z,5
2023-05-23T10:55:54.818Z,4
2023-05-23T10:57:01.641Z,4
2023-05-23T10:58:08.710Z,4
2023-05-23T10:59:18.425Z,5
2023-05-23T11:00:25.211Z,5
2023-05-23T11:01:32.085Z,4
2023-05-23T11:02:38.919Z,5
2023-05-23T11:03:56.423Z,5
2023-05-23T11:05:02.825Z,5
2023-05-23T11:06:20.028Z,5
2023-05-23T11:07:32.048Z,5
2023-05-23T11:08:46.648Z,5
2023-05-23T11:09:45.854Z,5
2023-05-23T11:11:03.173Z,5
2023-05-23T11:12:10.003Z,5
2023-05-23T11:13:16.809Z,5
2023-05-23T11:14:23.603Z,5
2023-05-23T11:15:35.567Z,5
2023-05-23T11:16:45.062Z,5
2023-05-23T11:17:51.835Z,5
2023-05-23T11:18:58.904Z,4
2023-05-23T11:20:16.234Z,5
2023-05-23T11:21:28.215Z,5
2023-05-23T11:22:35.095Z,5
2023-05-23T11:23:41.930Z,6
2023-05-23T11:24:48.728Z,5
2023-05-23T11:25:58.562Z,5
2023-05-23T11:27:05.366Z,5
2023-05-23T11:28:12.336Z,5
2023-05-23T11:29:19.744Z,5
2023-05-23T11:30:26.651Z,6
2023-05-23T11:31:33.726Z,5
2023-05-23T11:32:40.802Z,5
2023-05-23T11:33:52.822Z,5
2023-05-23T11:34:59.598Z,5
2023-05-23T11:36:06.436Z,6
2023-05-23T11:37:13.234Z,6
2023-05-23T11:38:20.000Z,6
2023-05-23T11:39:27.131Z,6
2023-05-23T11:40:33.896Z,6
2023-05-23T11:41:40.870Z,6
2023-05-23T11:42:47.683Z,6
2023-05-23T11:43:54.506Z,7
2023-05-23T11:45:01.433Z,6
2023-05-23T11:46:08.684Z,6
2023-05-23T11:47:15.426Z,6
2023-05-23T11:48:22.376Z,6
2023-05-23T11:49:31.223Z,6
2023-05-23T11:50:38.327Z,6
2023-05-23T11:51:53.103Z,6
2023-05-23T11:52:59.965Z,6
2023-05-23T11:54:06.768Z,7
2023-05-23T11:55:13.667Z,6
2023-05-23T11:56:20.499Z,6
2023-05-23T11:57:27.305Z,6
2023-05-23T11:58:34.172Z,7
2023-05-23T11:59:41.133Z,6
2023-05-23T12:00:47.955Z,6
2023-05-23T12:01:54.745Z,6
2023-05-23T12:03:06.632Z,6
2023-05-23T12:04:13.555Z,6
2023-05-23T12:05:20.306Z,6
2023-05-23T12:06:27.115Z,5
2023-05-23T12:07:33.959Z,5
2023-05-23T12:08:48.982Z,6
2023-05-23T12:09:56.101Z,6
2023-05-23T12:11:02.965Z,5
2023-05-23T12:12:09.698Z,5
2023-05-23T12:13:16.539Z,6
2023-05-23T12:14:55.244Z,6
2023-05-23T12:16:02.623Z,5
2023-05-23T12:17:09.503Z,5
2023-05-23T12:18:16.322Z,5
2023-05-23T12:19:23.123Z,5
2023-05-23T12:20:29.939Z,5
2023-05-23T12:21:36.919Z,5
2023-05-23T12:22:46.917Z,5
2023-05-23T12:23:53.776Z,5
2023-05-23T12:25:00.606Z,5
2023-05-23T12:26:08.105Z,4
2023-05-23T12:27:14.468Z,5
2023-05-23T12:28:21.470Z,5
2023-05-23T12:29:38.675Z,5
2023-05-23T12:30:45.580Z,4
2023-05-23T12:31:52.448Z,5
2023-05-23T12:32:59.271Z,4
2023-05-23T12:34:06.033Z,4
2023-05-23T12:35:12.849Z,5
2023-05-23T12:36:19.641Z,4
2023-05-23T12:37:29.266Z,4
2023-05-23T12:38:36.143Z,4
2023-05-23T12:39:43.127Z,4
2023-05-23T12:40:49.911Z,4
2023-05-23T12:42:07.193Z,4
2023-05-23T12:43:14.123Z,4
2023-05-23T12:44:20.876Z,4
2023-05-23T12:45:27.646Z,4
2023-05-23T12:46:45.477Z,5
2023-05-23T12:47:54.086Z,4
2023-05-23T12:48:59.098Z,5
2023-05-23T12:50:05.931Z,4
2023-05-23T12:51:12.877Z,4
2023-05-23T12:52:19.713Z,5
2023-05-23T12:53:26.532Z,4
2023-05-23T12:54:33.335Z,4
2023-05-23T12:55:40.214Z,4
2023-05-23T12:56:47.209Z,5
2023-05-23T12:57:54.068Z,4
2023-05-23T12:59:00.903Z,4
2023-05-23T13:00:30.254Z,4
2023-05-23T13:01:37.187Z,3
2023-05-23T13:02:44.142Z,4
2023-05-23T13:03:50.975Z,4
2023-05-23T13:04:57.774Z,3
2023-05-23T13:06:04.715Z,4
2023-05-23T13:07:11.693Z,4
2023-05-23T13:08:18.511Z,3
2023-05-23T13:09:25.451Z,4
2023-05-23T13:10:32.465Z,4
2023-05-23T13:11:39.185Z,4
2023-05-23T13:12:46.008Z,4
2023-05-23T13:13:52.881Z,4
2023-05-23T13:14:59.742Z,4
2023-05-23T13:16:06.877Z,3
2023-05-23T13:17:13.979Z,4
2023-05-23T13:18:20.731Z,3
2023-05-23T13:19:27.756Z,3
2023-05-23T13:20:34.665Z,3
2023-05-23T13:21:41.729Z,3
2023-05-23T13:22:56.446Z,3
2023-05-23T13:24:03.464Z,3
2023-05-23T13:25:10.466Z,3
2023-05-23T13:26:17.440Z,3
2023-05-23T13:27:24.263Z,3
2023-05-23T13:28:31.264Z,3
2023-05-23T13:29:38.202Z,3
2023-05-23T13:30:47.120Z,3
2023-05-23T13:31:52.065Z,3
2023-05-23T13:32:59.418Z,3
2023-05-23T13:34:06.266Z,3
2023-05-23T13:35:13.053Z,4
2023-05-23T13:36:20.255Z,3
2023-05-23T13:37:27.107Z,3
2023-05-23T13:38:34.025Z,4
2023-05-23T13:39:40.821Z,4
2023-05-23T13:40:49.268Z,4
2023-05-23T13:41:54.605Z,4
2023-05-23T13:43:01.599Z,4
2023-05-23T13:44:08.422Z,4
2023-05-23T13:45:15.259Z,4
2023-05-23T13:46:22.117Z,4
2023-05-23T13:47:28.924Z,4
2023-05-23T13:48:35.862Z,4
2023-05-23T13:49:42.705Z,4
2023-05-23T13:50:49.452Z,4
2023-05-23T13:51:56.417Z,4
2023-05-23T13:53:03.255Z,4
2023-05-23T13:54:10.007Z,4
2023-05-23T13:55:16.786Z,4
2023-05-23T13:56:23.721Z,4
2023-05-23T13:57:30.606Z,4
2023-05-23T13:58:37.370Z,4
2023-05-23T13:59:44.290Z,4
2023-05-23T14:00:51.491Z,4
2023-05-23T14:01:58.406Z,4
2023-05-23T14:03:05.373Z,3
2023-05-23T14:04:12.119Z,4
2023-05-23T14:05:18.884Z,4
2023-05-23T14:06:25.655Z,4
2023-05-23T14:07:32.714Z,4
2023-05-23T14:08:39.522Z,4
2023-05-23T14:09:46.345Z,4
2023-05-23T14:10:53.251Z,4
2023-05-23T14:12:00.080Z,4
2023-05-23T14:13:07.122Z,4
2023-05-23T14:14:14.177Z,4
2023-05-23T14:15:21.090Z,4
2023-05-23T14:16:28.002Z,4
2023-05-23T14:17:34.853Z,3
2023-05-23T14:18:41.886Z,3
2023-05-23T14:19:48.843Z,3
2023-05-23T14:20:55.670Z,4
2023-05-23T14:22:02.515Z,4
2023-05-23T14:23:09.422Z,4
2023-05-23T14:24:16.425Z,4
2023-05-23T14:25:23.346Z,4
2023-05-23T14:26:30.162Z,4
2023-05-23T14:27:36.992Z,4
2023-05-23T14:28:43.874Z,4
2023-05-23T14:29:50.876Z,4
2023-05-23T14:30:57.720Z,4
2023-05-23T14:32:04.760Z,4
2023-05-23T14:33:11.535Z,4
2023-05-23T14:34:18.354Z,4
2023-05-23T14:35:25.354Z,4
2023-05-23T14:36:32.292Z,4
2023-05-23T14:37:39.131Z,4
2023-05-23T14:38:46.001Z,4
2023-05-23T14:39:52.929Z,4
2023-05-23T14:40:59.855Z,4
2023-05-23T14:42:06.725Z,4
2023-05-23T14:43:13.608Z,4
2023-05-23T14:44:20.498Z,4
2023-05-23T14:45:32.330Z,4
2023-05-23T14:46:41.374Z,4
2023-05-23T14:47:48.282Z,4
2023-05-23T14:48:56.381Z,4
2023-05-23T14:50:03.401Z,4
2023-05-23T14:51:12.123Z,4
2023-05-23T14:52:17.527Z,4
2023-05-23T14:53:24.404Z,4
2023-05-23T14:54:31.190Z,4
2023-05-23T14:55:37.958Z,4
2023-05-23T14:56:44.775Z,4
2023-05-23T14:57:51.601Z,4
2023-05-23T14:58:58.609Z,4
2023-05-23T15:00:06.490Z,4
2023-05-23T15:01:14.136Z,4
2023-05-23T15:02:21.082Z,4
2023-05-23T15:03:28.697Z,4
2023-05-23T15:04:35.632Z,4
2023-05-23T15:05:43.432Z,4
2023-05-23T15:06:51.968Z,4
2023-05-23T15:08:01.411Z,4
2023-05-23T15:09:11.116Z,4
2023-05-23T15:10:22.407Z,4
2023-05-23T15:11:35.270Z,4
2023-05-23T15:12:49.572Z,4
2023-05-23T15:14:04.591Z,4
2023-05-23T15:15:17.556Z,5
2023-05-23T15:16:27.628Z,4
2023-05-23T15:17:38.619Z,4
2023-05-23T15:18:48.122Z,4
2023-05-23T15:19:57.805Z,5
2023-05-23T15:21:05.957Z,4
2023-05-23T15:22:22.486Z,4
2023-05-23T15:23:19.649Z,5
2023-05-23T15:24:29.480Z,4
2023-05-23T15:25:48.508Z,5
2023-05-23T15:26:43.963Z,5
2023-05-23T15:27:50.708Z,5
2023-05-23T15:29:06.423Z,4
2023-05-23T15:30:16.438Z,4
2023-05-23T15:31:28.783Z,5
2023-05-23T15:32:38.486Z,5
2023-05-23T15:33:48.597Z,4
2023-05-23T15:34:55.464Z,5
2023-05-23T15:36:02.406Z,5
2023-05-23T15:37:09.428Z,5
2023-05-23T15:38:18.446Z,5
2023-05-23T15:39:23.470Z,5
2023-05-23T15:40:30.367Z,5
2023-05-23T15:41:37.255Z,5
2023-05-23T15:42:44.140Z,5
2023-05-23T15:43:50.982Z,5
2023-05-23T15:44:57.766Z,5
2023-05-23T15:46:04.595Z,5
2023-05-23T15:47:11.558Z,5
2023-05-23T15:48:18.434Z,5
2023-05-23T15:49:26.776Z,5
2023-05-23T15:50:35.145Z,5
2023-05-23T15:51:45.498Z,5
2023-05-23T15:52:52.450Z,4
2023-05-23T15:54:01.264Z,4
2023-05-23T15:55:09.407Z,5
2023-05-23T15:56:19.041Z,4
2023-05-23T15:57:31.569Z,4
2023-05-23T15:58:38.355Z,4
2023-05-23T15:59:48.308Z,5
2023-05-23T16:00:58.191Z,5
2023-05-23T16:02:10.000Z,5
2023-05-23T16:03:19.823Z,6
2023-05-23T16:04:26.685Z,6
2023-05-23T16:05:39.548Z,6
2023-05-23T16:06:49.165Z,5
2023-05-23T16:07:55.952Z,6
2023-05-23T16:09:02.959Z,5
2023-05-23T16:10:10.053Z,6
2023-05-23T16:11:20.244Z,5
2023-05-23T16:12:33.481Z,6
2023-05-23T16:13:49.131Z,5
2023-05-23T16:14:55.922Z,5
2023-05-23T16:16:06.395Z,5
2023-05-23T16:17:13.384Z,5
2023-05-23T16:18:21.214Z,5
2023-05-23T16:19:30.084Z,5
2023-05-23T16:20:36.922Z,5
2023-05-23T16:21:43.911Z,5
2023-05-23T16:22:51.332Z,4
2023-05-23T16:23:58.963Z,5
2023-05-23T16:25:05.787Z,5
2023-05-23T16:26:13.318Z,5
2023-05-23T16:27:20.256Z,5
2023-05-23T16:28:27.577Z,4
2023-05-23T16:29:37.802Z,5
2023-05-23T16:30:44.623Z,5
2023-05-23T16:31:51.546Z,5
2023-05-23T16:32:58.321Z,5
2023-05-23T16:34:05.869Z,4
2023-05-23T16:35:12.674Z,5
2023-05-23T16:36:20.062Z,4
2023-05-23T16:37:27.080Z,4
2023-05-23T16:38:45.737Z,4
2023-05-23T16:39:52.559Z,4
2023-05-23T16:40:59.404Z,4
2023-05-23T16:42:07.083Z,4
2023-05-23T16:43:14.447Z,4
2023-05-23T16:44:24.277Z,4
2023-05-23T16:45:31.223Z,4
2023-05-23T16:46:38.145Z,4
2023-05-23T16:47:48.251Z,4
2023-05-23T16:48:55.092Z,4
2023-05-23T16:50:02.040Z,4
2023-05-23T16:51:12.318Z,4
2023-05-23T16:52:19.257Z,4
2023-05-23T16:53:26.667Z,4
2023-05-23T16:54:33.425Z,4
2023-05-23T16:55:43.781Z,4
2023-05-23T16:56:53.201Z,4
2023-05-23T16:58:00.300Z,4
2023-05-23T16:59:10.058Z,4
2023-05-23T17:00:17.047Z,4
2023-05-23T17:01:24.255Z,4